To NAV CANADA Home Page Login to a new session Search on AWWS site Disclaimer Vers la page française équivalente Tips FAQ What's new on the site To the Forecasts and Observations / NOTAM section To "File a Flight Plan" website Publications and other links Update of the User's profile FIC Telephone Numbers My Weather Data Folder Route Weather Data Regional Weather Data Local Weather Data To the Forecasts and Observations / NOTAM section
Request Generated 08/19/2022 at 02:07:57 UTC . Weather information available at that time is displayed.

METAR/TAF

GERALDTON (GREENSTONE REGIONAL)/ON    

METAR CYGQ 190200Z AUTO 23004KT 9SM SCT010 BKN013 BKN110 18/17 A2979 RMK SLP094 DENSITY ALT 1900FT=
SPECI CYGQ 190117Z AUTO VRB02KT 9SM BKN013 BKN060 OVC075 19/17 A2979 RMK SLP094 DENSITY ALT 2000FT=
METAR CYGQ 190100Z AUTO 26004KT 9SM BKN060 OVC074 19/17 A2980 RMK SLP097 DENSITY ALT 2000FT=
METAR CYGQ 190000Z AUTO 27005KT 240V300 9SM FEW021 SCT041 BKN066 OVC100 19/17 A2979 RMK SLP095 DENSITY ALT 2100FT=

TAF CYGQ 190140Z 1902/1914 VRB03KT P6SM SCT015 BKN060 TEMPO
1902/1904 5SM -SHRA BR BKN015 OVC060
FM190400 VRB03KT 6SM BR SCT007 OVC025 TEMPO 1904/1906 3SM BR
BKN007 OVC025
FM190600 VRB03KT 2SM BR OVC004 TEMPO 1906/1908 6SM BR SCT004
OVC010 PROB30 1906/1908 1/2SM FG VV002
FM190800 VRB03KT 1/2SM -DZ FG VV001
FM191300 32005KT 2SM BR OVC005
RMK FCST BASED ON AUTO OBS. NXT FCST BY 190800Z=
Your time UTC time
Weather data provided by Environment Canada and NAV CANADA